sensor_id;sensor_type;location;lat;lon;timestamp;temperature;humidity
72440;DHT22;60446;50.752;4.352;2023-05-10T00:01:50;11.70;88.60
72440;DHT22;60446;50.752;4.352;2023-05-10T00:04:17;11.70;88.60
72440;DHT22;60446;50.752;4.352;2023-05-10T00:06:44;11.70;88.50
72440;DHT22;60446;50.752;4.352;2023-05-10T00:09:11;11.70;88.60
72440;DHT22;60446;50.752;4.352;2023-05-10T00:11:38;11.70;88.60
72440;DHT22;60446;50.752;4.352;2023-05-10T00:14:06;11.70;88.70
72440;DHT22;60446;50.752;4.352;2023-05-10T00:16:33;11.70;88.70
72440;DHT22;60446;50.752;4.352;2023-05-10T00:19:00;11.70;88.80
72440;DHT22;60446;50.752;4.352;2023-05-10T00:21:27;11.70;88.80
72440;DHT22;60446;50.752;4.352;2023-05-10T00:23:55;11.80;88.90
72440;DHT22;60446;50.752;4.352;2023-05-10T00:26:22;11.80;88.60
72440;DHT22;60446;50.752;4.352;2023-05-10T00:28:52;11.80;88.60
72440;DHT22;60446;50.752;4.352;2023-05-10T00:31:19;11.80;88.60
72440;DHT22;60446;50.752;4.352;2023-05-10T00:33:46;11.80;88.60
72440;DHT22;60446;50.752;4.352;2023-05-10T00:36:13;11.80;88.60
72440;DHT22;60446;50.752;4.352;2023-05-10T00:38:40;11.80;88.50
72440;DHT22;60446;50.752;4.352;2023-05-10T00:41:07;11.80;88.30
72440;DHT22;60446;50.752;4.352;2023-05-10T00:43:36;11.80;88.50
72440;DHT22;60446;50.752;4.352;2023-05-10T00:46:04;11.80;88.60
72440;DHT22;60446;50.752;4.352;2023-05-10T00:48:31;11.80;88.70
72440;DHT22;60446;50.752;4.352;2023-05-10T00:50:59;11.90;88.60
72440;DHT22;60446;50.752;4.352;2023-05-10T00:53:26;11.90;88.50
72440;DHT22;60446;50.752;4.352;2023-05-10T00:55:53;11.90;88.30
72440;DHT22;60446;50.752;4.352;2023-05-10T00:58:21;11.80;88.50
72440;DHT22;60446;50.752;4.352;2023-05-10T01:00:50;11.90;88.70
72440;DHT22;60446;50.752;4.352;2023-05-10T01:03:18;11.80;88.60
72440;DHT22;60446;50.752;4.352;2023-05-10T01:05:47;11.90;88.70
72440;DHT22;60446;50.752;4.352;2023-05-10T01:08:14;11.80;88.70
72440;DHT22;60446;50.752;4.352;2023-05-10T01:10:42;11.80;88.70
72440;DHT22;60446;50.752;4.352;2023-05-10T01:13:10;11.80;88.80
72440;DHT22;60446;50.752;4.352;2023-05-10T01:15:38;11.80;88.90
72440;DHT22;60446;50.752;4.352;2023-05-10T01:18:08;11.80;88.90
72440;DHT22;60446;50.752;4.352;2023-05-10T01:20:40;11.80;88.80
72440;DHT22;60446;50.752;4.352;2023-05-10T01:32:02;12.00;88.60
72440;DHT22;60446;50.752;4.352;2023-05-10T01:35:06;12.00;88.50
72440;DHT22;60446;50.752;4.352;2023-05-10T01:43:29;11.90;88.70
72440;DHT22;60446;50.752;4.352;2023-05-10T01:46:04;11.90;88.60
72440;DHT22;60446;50.752;4.352;2023-05-10T01:48:47;11.90;88.60
72440;DHT22;60446;50.752;4.352;2023-05-10T01:51:23;11.90;88.70
72440;DHT22;60446;50.752;4.352;2023-05-10T01:53:59;11.90;88.60
72440;DHT22;60446;50.752;4.352;2023-05-10T01:56:30;11.90;88.60
72440;DHT22;60446;50.752;4.352;2023-05-10T01:59:00;11.90;88.60
72440;DHT22;60446;50.752;4.352;2023-05-10T02:01:34;11.80;88.50
72440;DHT22;60446;50.752;4.352;2023-05-10T02:04:05;11.80;88.60
72440;DHT22;60446;50.752;4.352;2023-05-10T02:06:34;11.80;88.70
72440;DHT22;60446;50.752;4.352;2023-05-10T02:09:02;11.80;88.70
72440;DHT22;60446;50.752;4.352;2023-05-10T02:11:30;11.70;88.80
72440;DHT22;60446;50.752;4.352;2023-05-10T02:13:58;11.70;88.90
72440;DHT22;60446;50.752;4.352;2023-05-10T02:16:28;11.70;88.90
72440;DHT22;60446;50.752;4.352;2023-05-10T02:18:59;11.70;89.10
72440;DHT22;60446;50.752;4.352;2023-05-10T02:21:28;11.80;89.00
72440;DHT22;60446;50.752;4.352;2023-05-10T02:23:58;11.80;88.70
72440;DHT22;60446;50.752;4.352;2023-05-10T02:26:28;11.80;88.60
72440;DHT22;60446;50.752;4.352;2023-05-10T02:28:57;11.70;88.70
72440;DHT22;60446;50.752;4.352;2023-05-10T02:31:25;11.70;88.80
72440;DHT22;60446;50.752;4.352;2023-05-10T02:33:53;11.80;88.70
72440;DHT22;60446;50.752;4.352;2023-05-10T02:36:21;11.80;88.60
72440;DHT22;60446;50.752;4.352;2023-05-10T02:38:50;11.80;88.30
72440;DHT22;60446;50.752;4.352;2023-05-10T02:41:20;11.80;88.00
72440;DHT22;60446;50.752;4.352;2023-05-10T02:43:50;11.80;88.00
72440;DHT22;60446;50.752;4.352;2023-05-10T02:46:19;11.80;88.10
72440;DHT22;60446;50.752;4.352;2023-05-10T02:48:46;11.80;88.10
72440;DHT22;60446;50.752;4.352;2023-05-10T02:51:16;11.80;88.10
72440;DHT22;60446;50.752;4.352;2023-05-10T02:53:46;11.80;88.00
72440;DHT22;60446;50.752;4.352;2023-05-10T02:56:23;11.80;88.20
72440;DHT22;60446;50.752;4.352;2023-05-10T02:58:52;11.80;88.20
72440;DHT22;60446;50.752;4.352;2023-05-10T03:01:19;11.80;88.10
72440;DHT22;60446;50.752;4.352;2023-05-10T03:03:47;11.80;88.10
72440;DHT22;60446;50.752;4.352;2023-05-10T03:06:14;11.80;88.10
72440;DHT22;60446;50.752;4.352;2023-05-10T03:08:44;11.80;88.30
72440;DHT22;60446;50.752;4.352;2023-05-10T03:11:40;11.80;88.20
72440;DHT22;60446;50.752;4.352;2023-05-10T03:17:39;11.70;88.40
72440;DHT22;60446;50.752;4.352;2023-05-10T03:20:11;11.70;88.40
72440;DHT22;60446;50.752;4.352;2023-05-10T03:22:47;11.70;88.20
72440;DHT22;60446;50.752;4.352;2023-05-10T03:25:19;11.70;88.10
72440;DHT22;60446;50.752;4.352;2023-05-10T03:27:48;11.80;88.00
72440;DHT22;60446;50.752;4.352;2023-05-10T03:30:17;11.80;88.00
72440;DHT22;60446;50.752;4.352;2023-05-10T03:32:45;11.80;88.00
72440;DHT22;60446;50.752;4.352;2023-05-10T03:35:15;11.80;88.00
72440;DHT22;60446;50.752;4.352;2023-05-10T03:37:43;11.80;87.90
72440;DHT22;60446;50.752;4.352;2023-05-10T03:40:10;11.70;87.70
72440;DHT22;60446;50.752;4.352;2023-05-10T03:42:40;11.70;87.90
72440;DHT22;60446;50.752;4.352;2023-05-10T03:45:08;11.70;87.90
72440;DHT22;60446;50.752;4.352;2023-05-10T03:47:36;11.80;88.00
72440;DHT22;60446;50.752;4.352;2023-05-10T03:50:04;11.70;87.80
72440;DHT22;60446;50.752;4.352;2023-05-10T03:52:32;11.70;87.60
72440;DHT22;60446;50.752;4.352;2023-05-10T03:54:59;11.70;87.70
72440;DHT22;60446;50.752;4.352;2023-05-10T03:57:27;11.70;87.60
72440;DHT22;60446;50.752;4.352;2023-05-10T03:59:54;11.70;87.70
72440;DHT22;60446;50.752;4.352;2023-05-10T04:02:22;11.70;87.60
72440;DHT22;60446;50.752;4.352;2023-05-10T04:04:49;11.60;87.90
72440;DHT22;60446;50.752;4.352;2023-05-10T04:07:17;11.70;88.10
72440;DHT22;60446;50.752;4.352;2023-05-10T04:09:44;11.60;87.70
72440;DHT22;60446;50.752;4.352;2023-05-10T04:12:12;11.60;88.00
72440;DHT22;60446;50.752;4.352;2023-05-10T04:14:39;11.60;88.40
72440;DHT22;60446;50.752;4.352;2023-05-10T04:17:06;11.60;88.50
72440;DHT22;60446;50.752;4.352;2023-05-10T04:19:33;11.70;88.20
72440;DHT22;60446;50.752;4.352;2023-05-10T04:22:02;11.60;88.20
72440;DHT22;60446;50.752;4.352;2023-05-10T04:24:29;11.60;88.50
72440;DHT22;60446;50.752;4.352;2023-05-10T04:26:56;11.60;88.50
72440;DHT22;60446;50.752;4.352;2023-05-10T04:29:24;11.50;88.60
72440;DHT22;60446;50.752;4.352;2023-05-10T04:31:51;11.50;88.50
72440;DHT22;60446;50.752;4.352;2023-05-10T04:34:18;11.50;88.70
72440;DHT22;60446;50.752;4.352;2023-05-10T04:36:47;11.50;88.70
72440;DHT22;60446;50.752;4.352;2023-05-10T04:39:14;11.40;88.70
72440;DHT22;60446;50.752;4.352;2023-05-10T04:41:41;11.40;88.70
72440;DHT22;60446;50.752;4.352;2023-05-10T04:44:08;11.40;88.50
72440;DHT22;60446;50.752;4.352;2023-05-10T04:46:35;11.30;88.50
72440;DHT22;60446;50.752;4.352;2023-05-10T04:49:03;11.30;88.40
72440;DHT22;60446;50.752;4.352;2023-05-10T04:51:30;11.20;88.50
72440;DHT22;60446;50.752;4.352;2023-05-10T04:53:57;11.20;88.70
72440;DHT22;60446;50.752;4.352;2023-05-10T04:56:32;11.20;88.80
72440;DHT22;60446;50.752;4.352;2023-05-10T04:59:00;11.20;88.80
72440;DHT22;60446;50.752;4.352;2023-05-10T05:01:27;11.20;88.60
72440;DHT22;60446;50.752;4.352;2023-05-10T05:03:54;11.20;88.60
72440;DHT22;60446;50.752;4.352;2023-05-10T05:06:22;11.20;88.50
72440;DHT22;60446;50.752;4.352;2023-05-10T05:08:49;11.20;88.10
72440;DHT22;60446;50.752;4.352;2023-05-10T05:11:17;11.10;88.20
72440;DHT22;60446;50.752;4.352;2023-05-10T05:13:44;11.10;88.50
72440;DHT22;60446;50.752;4.352;2023-05-10T05:16:11;11.10;88.70
72440;DHT22;60446;50.752;4.352;2023-05-10T05:18:39;11.10;88.90
72440;DHT22;60446;50.752;4.352;2023-05-10T05:21:16;11.10;88.90
72440;DHT22;60446;50.752;4.352;2023-05-10T05:23:44;11.10;88.80
72440;DHT22;60446;50.752;4.352;2023-05-10T05:26:11;11.10;88.60
72440;DHT22;60446;50.752;4.352;2023-05-10T05:28:38;11.10;88.60
72440;DHT22;60446;50.752;4.352;2023-05-10T05:31:06;11.10;88.60
72440;DHT22;60446;50.752;4.352;2023-05-10T05:33:34;11.10;88.80
72440;DHT22;60446;50.752;4.352;2023-05-10T05:36:05;11.00;88.50
72440;DHT22;60446;50.752;4.352;2023-05-10T05:38:33;11.00;88.50
72440;DHT22;60446;50.752;4.352;2023-05-10T05:41:00;11.00;88.50
72440;DHT22;60446;50.752;4.352;2023-05-10T05:43:27;11.00;88.60
72440;DHT22;60446;50.752;4.352;2023-05-10T05:45:54;10.90;88.40
72440;DHT22;60446;50.752;4.352;2023-05-10T05:48:25;10.90;88.50
72440;DHT22;60446;50.752;4.352;2023-05-10T05:50:56;10.90;88.80
72440;DHT22;60446;50.752;4.352;2023-05-10T05:53:23;10.90;88.80
72440;DHT22;60446;50.752;4.352;2023-05-10T05:55:55;10.90;88.70
72440;DHT22;60446;50.752;4.352;2023-05-10T05:58:23;10.80;88.50
72440;DHT22;60446;50.752;4.352;2023-05-10T06:00:51;10.80;88.30
72440;DHT22;60446;50.752;4.352;2023-05-10T06:03:19;10.80;88.50
72440;DHT22;60446;50.752;4.352;2023-05-10T06:05:47;10.80;88.60
72440;DHT22;60446;50.752;4.352;2023-05-10T06:08:14;10.80;88.70
72440;DHT22;60446;50.752;4.352;2023-05-10T06:10:41;10.90;88.40
72440;DHT22;60446;50.752;4.352;2023-05-10T06:13:08;10.90;87.90
72440;DHT22;60446;50.752;4.352;2023-05-10T06:15:36;10.80;87.90
72440;DHT22;60446;50.752;4.352;2023-05-10T06:18:03;10.80;87.70
72440;DHT22;60446;50.752;4.352;2023-05-10T06:20:30;10.80;88.00
72440;DHT22;60446;50.752;4.352;2023-05-10T06:23:00;10.90;87.70
72440;DHT22;60446;50.752;4.352;2023-05-10T06:25:27;11.00;87.10
72440;DHT22;60446;50.752;4.352;2023-05-10T06:27:54;10.90;87.10
72440;DHT22;60446;50.752;4.352;2023-05-10T06:30:25;10.80;87.20
72440;DHT22;60446;50.752;4.352;2023-05-10T06:32:56;10.90;87.60
72440;DHT22;60446;50.752;4.352;2023-05-10T06:35:24;10.90;87.60
72440;DHT22;60446;50.752;4.352;2023-05-10T06:37:51;10.90;87.60
72440;DHT22;60446;50.752;4.352;2023-05-10T06:40:18;10.90;87.00
72440;DHT22;60446;50.752;4.352;2023-05-10T06:42:47;10.90;87.10
72440;DHT22;60446;50.752;4.352;2023-05-10T06:45:17;10.90;87.00
72440;DHT22;60446;50.752;4.352;2023-05-10T06:47:44;10.90;87.40
72440;DHT22;60446;50.752;4.352;2023-05-10T06:50:12;10.90;87.20
72440;DHT22;60446;50.752;4.352;2023-05-10T06:52:39;10.90;87.30
72440;DHT22;60446;50.752;4.352;2023-05-10T06:55:07;10.90;87.30
72440;DHT22;60446;50.752;4.352;2023-05-10T06:57:35;10.90;87.60
72440;DHT22;60446;50.752;4.352;2023-05-10T07:00:03;10.90;87.00
72440;DHT22;60446;50.752;4.352;2023-05-10T07:02:33;11.00;87.30
72440;DHT22;60446;50.752;4.352;2023-05-10T07:05:00;10.90;87.30
72440;DHT22;60446;50.752;4.352;2023-05-10T07:07:41;11.00;87.70
72440;DHT22;60446;50.752;4.352;2023-05-10T07:10:08;11.10;87.80
72440;DHT22;60446;50.752;4.352;2023-05-10T07:12:36;11.20;87.50
72440;DHT22;60446;50.752;4.352;2023-05-10T07:15:04;11.30;87.20
72440;DHT22;60446;50.752;4.352;2023-05-10T07:17:31;11.40;87.10
72440;DHT22;60446;50.752;4.352;2023-05-10T07:20:00;11.50;86.70
72440;DHT22;60446;50.752;4.352;2023-05-10T07:22:28;11.50;85.50
72440;DHT22;60446;50.752;4.352;2023-05-10T07:24:55;11.50;85.80
72440;DHT22;60446;50.752;4.352;2023-05-10T07:27:22;11.50;85.50
72440;DHT22;60446;50.752;4.352;2023-05-10T07:29:49;11.60;85.30
72440;DHT22;60446;50.752;4.352;2023-05-10T07:32:17;11.60;85.40
72440;DHT22;60446;50.752;4.352;2023-05-10T07:34:44;11.60;85.60
72440;DHT22;60446;50.752;4.352;2023-05-10T07:37:11;11.60;85.90
72440;DHT22;60446;50.752;4.352;2023-05-10T07:39:38;11.60;85.90
72440;DHT22;60446;50.752;4.352;2023-05-10T07:42:05;11.70;86.00
72440;DHT22;60446;50.752;4.352;2023-05-10T07:44:32;11.70;85.70
72440;DHT22;60446;50.752;4.352;2023-05-10T07:46:59;11.80;85.40
72440;DHT22;60446;50.752;4.352;2023-05-10T07:49:29;11.60;83.80
72440;DHT22;60446;50.752;4.352;2023-05-10T07:51:56;11.70;85.20
72440;DHT22;60446;50.752;4.352;2023-05-10T07:54:24;11.70;84.50
72440;DHT22;60446;50.752;4.352;2023-05-10T07:56:51;11.60;85.20
72440;DHT22;60446;50.752;4.352;2023-05-10T07:59:18;11.70;85.00
72440;DHT22;60446;50.752;4.352;2023-05-10T08:01:45;11.70;84.90
72440;DHT22;60446;50.752;4.352;2023-05-10T08:04:12;11.60;84.40
72440;DHT22;60446;50.752;4.352;2023-05-10T08:06:40;11.60;84.60
72440;DHT22;60446;50.752;4.352;2023-05-10T08:09:08;11.50;85.10
72440;DHT22;60446;50.752;4.352;2023-05-10T08:11:35;11.60;85.50
72440;DHT22;60446;50.752;4.352;2023-05-10T08:14:02;11.60;85.40
72440;DHT22;60446;50.752;4.352;2023-05-10T08:16:29;11.60;85.90
72440;DHT22;60446;50.752;4.352;2023-05-10T08:18:57;11.80;86.00
72440;DHT22;60446;50.752;4.352;2023-05-10T08:21:24;11.90;85.30
72440;DHT22;60446;50.752;4.352;2023-05-10T08:23:51;11.90;84.80
72440;DHT22;60446;50.752;4.352;2023-05-10T08:26:18;11.90;83.90
72440;DHT22;60446;50.752;4.352;2023-05-10T08:28:45;11.90;84.00
72440;DHT22;60446;50.752;4.352;2023-05-10T08:31:12;11.90;84.60
72440;DHT22;60446;50.752;4.352;2023-05-10T08:33:40;11.90;85.00
72440;DHT22;60446;50.752;4.352;2023-05-10T08:36:27;12.00;85.00
72440;DHT22;60446;50.752;4.352;2023-05-10T08:38:54;12.10;84.60
72440;DHT22;60446;50.752;4.352;2023-05-10T08:41:22;12.10;83.90
72440;DHT22;60446;50.752;4.352;2023-05-10T08:43:54;12.10;83.90
72440;DHT22;60446;50.752;4.352;2023-05-10T08:46:22;12.10;84.50
72440;DHT22;60446;50.752;4.352;2023-05-10T08:48:50;12.10;83.80
72440;DHT22;60446;50.752;4.352;2023-05-10T08:51:22;12.10;83.20
72440;DHT22;60446;50.752;4.352;2023-05-10T08:53:50;12.10;83.70
72440;DHT22;60446;50.752;4.352;2023-05-10T08:56:18;12.00;84.30
72440;DHT22;60446;50.752;4.352;2023-05-10T08:58:46;11.90;84.70
72440;DHT22;60446;50.752;4.352;2023-05-10T09:01:15;11.90;84.80
72440;DHT22;60446;50.752;4.352;2023-05-10T09:03:43;11.90;85.20
72440;DHT22;60446;50.752;4.352;2023-05-10T09:06:13;12.00;85.10
72440;DHT22;60446;50.752;4.352;2023-05-10T09:08:41;12.00;84.40
72440;DHT22;60446;50.752;4.352;2023-05-10T09:11:10;12.00;84.90
72440;DHT22;60446;50.752;4.352;2023-05-10T09:13:38;12.00;84.30
72440;DHT22;60446;50.752;4.352;2023-05-10T09:16:06;12.00;85.00
72440;DHT22;60446;50.752;4.352;2023-05-10T09:18:47;12.10;85.40
72440;DHT22;60446;50.752;4.352;2023-05-10T09:21:14;12.10;84.60
72440;DHT22;60446;50.752;4.352;2023-05-10T09:23:45;12.10;84.70
72440;DHT22;60446;50.752;4.352;2023-05-10T09:26:14;12.20;85.00
72440;DHT22;60446;50.752;4.352;2023-05-10T09:28:55;12.20;84.70
72440;DHT22;60446;50.752;4.352;2023-05-10T09:31:24;12.20;84.10
72440;DHT22;60446;50.752;4.352;2023-05-10T09:33:53;12.20;84.10
72440;DHT22;60446;50.752;4.352;2023-05-10T09:36:20;12.20;84.30
72440;DHT22;60446;50.752;4.352;2023-05-10T09:38:52;12.20;84.50
72440;DHT22;60446;50.752;4.352;2023-05-10T09:41:23;12.10;84.10
72440;DHT22;60446;50.752;4.352;2023-05-10T09:43:55;12.00;84.20
72440;DHT22;60446;50.752;4.352;2023-05-10T09:46:23;12.00;84.50
72440;DHT22;60446;50.752;4.352;2023-05-10T09:48:50;11.90;84.70
72440;DHT22;60446;50.752;4.352;2023-05-10T09:51:21;11.90;84.60
72440;DHT22;60446;50.752;4.352;2023-05-10T09:54:17;11.90;84.70
72440;DHT22;60446;50.752;4.352;2023-05-10T09:56:44;11.90;84.30
72440;DHT22;60446;50.752;4.352;2023-05-10T09:59:12;11.90;84.20
72440;DHT22;60446;50.752;4.352;2023-05-10T10:01:39;11.90;85.00
72440;DHT22;60446;50.752;4.352;2023-05-10T10:04:09;11.90;85.10
72440;DHT22;60446;50.752;4.352;2023-05-10T10:06:38;11.90;85.60
72440;DHT22;60446;50.752;4.352;2023-05-10T10:09:07;12.00;84.50
72440;DHT22;60446;50.752;4.352;2023-05-10T10:11:36;12.10;83.80
72440;DHT22;60446;50.752;4.352;2023-05-10T10:14:04;12.10;84.60
72440;DHT22;60446;50.752;4.352;2023-05-10T10:16:32;12.20;85.00
72440;DHT22;60446;50.752;4.352;2023-05-10T10:19:00;12.30;84.80
72440;DHT22;60446;50.752;4.352;2023-05-10T10:21:28;12.30;83.80
72440;DHT22;60446;50.752;4.352;2023-05-10T10:23:55;12.40;84.50
72440;DHT22;60446;50.752;4.352;2023-05-10T10:26:22;12.50;84.20
72440;DHT22;60446;50.752;4.352;2023-05-10T10:34:45;13.00;83.60
72440;DHT22;60446;50.752;4.352;2023-05-10T10:37:12;13.10;83.30
72440;DHT22;60446;50.752;4.352;2023-05-10T10:39:39;13.20;82.80
72440;DHT22;60446;50.752;4.352;2023-05-10T10:42:06;13.20;82.30
72440;DHT22;60446;50.752;4.352;2023-05-10T10:44:36;13.20;82.00
72440;DHT22;60446;50.752;4.352;2023-05-10T10:49:48;13.50;83.10
72440;DHT22;60446;50.752;4.352;2023-05-10T11:00:27;13.70;80.80
72440;DHT22;60446;50.752;4.352;2023-05-10T11:03:06;13.70;81.80
72440;DHT22;60446;50.752;4.352;2023-05-10T11:05:44;13.90;82.70
72440;DHT22;60446;50.752;4.352;2023-05-10T11:08:31;14.00;81.80
72440;DHT22;60446;50.752;4.352;2023-05-10T11:11:06;14.00;79.50
72440;DHT22;60446;50.752;4.352;2023-05-10T11:13:42;14.00;79.70
72440;DHT22;60446;50.752;4.352;2023-05-10T11:16:24;14.10;81.10
72440;DHT22;60446;50.752;4.352;2023-05-10T11:18:59;14.30;80.80
72440;DHT22;60446;50.752;4.352;2023-05-10T11:21:32;14.70;80.10
72440;DHT22;60446;50.752;4.352;2023-05-10T11:24:01;14.80;80.10
72440;DHT22;60446;50.752;4.352;2023-05-10T11:26:35;15.00;79.90
72440;DHT22;60446;50.752;4.352;2023-05-10T11:29:03;15.00;78.80
72440;DHT22;60446;50.752;4.352;2023-05-10T11:31:31;15.20;79.40
72440;DHT22;60446;50.752;4.352;2023-05-10T11:33:59;15.30;78.30
72440;DHT22;60446;50.752;4.352;2023-05-10T11:36:34;15.50;78.70
72440;DHT22;60446;50.752;4.352;2023-05-10T11:39:04;15.60;79.20
72440;DHT22;60446;50.752;4.352;2023-05-10T11:41:31;15.90;77.80
72440;DHT22;60446;50.752;4.352;2023-05-10T11:43:59;16.00;74.20
72440;DHT22;60446;50.752;4.352;2023-05-10T11:46:27;16.10;75.70
72440;DHT22;60446;50.752;4.352;2023-05-10T11:49:00;16.10;75.80
72440;DHT22;60446;50.752;4.352;2023-05-10T11:51:28;16.10;73.50
72440;DHT22;60446;50.752;4.352;2023-05-10T11:53:57;16.10;75.40
72440;DHT22;60446;50.752;4.352;2023-05-10T11:56:24;16.20;75.60
72440;DHT22;60446;50.752;4.352;2023-05-10T11:58:57;16.30;74.30
72440;DHT22;60446;50.752;4.352;2023-05-10T12:01:26;16.30;74.10
72440;DHT22;60446;50.752;4.352;2023-05-10T12:03:55;16.20;73.20
72440;DHT22;60446;50.752;4.352;2023-05-10T12:06:28;16.20;74.00
72440;DHT22;60446;50.752;4.352;2023-05-10T12:08:58;16.20;74.40
72440;DHT22;60446;50.752;4.352;2023-05-10T12:11:27;16.30;74.20
72440;DHT22;60446;50.752;4.352;2023-05-10T12:13:55;16.50;75.50
72440;DHT22;60446;50.752;4.352;2023-05-10T12:16:28;16.40;75.40
72440;DHT22;60446;50.752;4.352;2023-05-10T12:18:58;16.50;74.70
72440;DHT22;60446;50.752;4.352;2023-05-10T12:21:28;16.50;75.10
72440;DHT22;60446;50.752;4.352;2023-05-10T12:24:02;16.60;74.00
72440;DHT22;60446;50.752;4.352;2023-05-10T12:26:32;16.70;74.80
72440;DHT22;60446;50.752;4.352;2023-05-10T12:29:15;16.90;72.50
72440;DHT22;60446;50.752;4.352;2023-05-10T12:34:32;16.40;73.40
72440;DHT22;60446;50.752;4.352;2023-05-10T12:37:04;16.10;73.50
72440;DHT22;60446;50.752;4.352;2023-05-10T12:39:42;15.90;74.10
72440;DHT22;60446;50.752;4.352;2023-05-10T12:42:11;15.70;72.80
72440;DHT22;60446;50.752;4.352;2023-05-10T12:44:38;15.60;75.20
72440;DHT22;60446;50.752;4.352;2023-05-10T12:47:06;15.50;74.80
72440;DHT22;60446;50.752;4.352;2023-05-10T12:49:34;15.50;74.20
72440;DHT22;60446;50.752;4.352;2023-05-10T12:52:01;15.60;75.10
72440;DHT22;60446;50.752;4.352;2023-05-10T12:54:28;15.50;73.80
72440;DHT22;60446;50.752;4.352;2023-05-10T12:56:55;15.50;75.30
72440;DHT22;60446;50.752;4.352;2023-05-10T12:59:22;15.70;74.70
72440;DHT22;60446;50.752;4.352;2023-05-10T13:02:18;15.90;75.00
72440;DHT22;60446;50.752;4.352;2023-05-10T13:04:59;16.20;74.80
72440;DHT22;60446;50.752;4.352;2023-05-10T13:07:41;16.50;71.20
72440;DHT22;60446;50.752;4.352;2023-05-10T13:10:13;16.60;72.40
72440;DHT22;60446;50.752;4.352;2023-05-10T13:12:50;16.40;72.20
72440;DHT22;60446;50.752;4.352;2023-05-10T13:15:58;16.30;74.10
72440;DHT22;60446;50.752;4.352;2023-05-10T13:18:26;16.50;73.00
72440;DHT22;60446;50.752;4.352;2023-05-10T13:20:58;16.70;73.40
72440;DHT22;60446;50.752;4.352;2023-05-10T13:23:33;16.70;69.80
72440;DHT22;60446;50.752;4.352;2023-05-10T13:26:04;16.70;70.70
72440;DHT22;60446;50.752;4.352;2023-05-10T13:29:10;16.60;69.60
72440;DHT22;60446;50.752;4.352;2023-05-10T13:31:44;16.70;71.30
72440;DHT22;60446;50.752;4.352;2023-05-10T13:34:23;16.80;70.30
72440;DHT22;60446;50.752;4.352;2023-05-10T13:36:59;16.70;70.30
72440;DHT22;60446;50.752;4.352;2023-05-10T13:39:42;16.60;70.00
72440;DHT22;60446;50.752;4.352;2023-05-10T13:42:14;16.70;73.30
72440;DHT22;60446;50.752;4.352;2023-05-10T13:44:56;16.90;73.10
72440;DHT22;60446;50.752;4.352;2023-05-10T13:47:37;17.20;70.90
72440;DHT22;60446;50.752;4.352;2023-05-10T13:50:05;17.30;69.50
72440;DHT22;60446;50.752;4.352;2023-05-10T13:52:33;17.50;68.80
72440;DHT22;60446;50.752;4.352;2023-05-10T13:55:02;17.50;68.50
72440;DHT22;60446;50.752;4.352;2023-05-10T13:57:32;17.40;68.60
72440;DHT22;60446;50.752;4.352;2023-05-10T14:00:02;17.30;68.30
72440;DHT22;60446;50.752;4.352;2023-05-10T14:02:33;17.20;68.60
72440;DHT22;60446;50.752;4.352;2023-05-10T14:05:01;17.10;67.50
72440;DHT22;60446;50.752;4.352;2023-05-10T14:07:28;17.20;70.10
72440;DHT22;60446;50.752;4.352;2023-05-10T14:09:58;17.40;69.50
72440;DHT22;60446;50.752;4.352;2023-05-10T14:12:27;17.50;68.00
72440;DHT22;60446;50.752;4.352;2023-05-10T14:14:54;17.30;70.00
72440;DHT22;60446;50.752;4.352;2023-05-10T14:17:21;17.50;69.80
72440;DHT22;60446;50.752;4.352;2023-05-10T14:19:49;17.60;67.30
72440;DHT22;60446;50.752;4.352;2023-05-10T14:22:18;17.60;68.40
72440;DHT22;60446;50.752;4.352;2023-05-10T14:24:45;17.60;68.90
72440;DHT22;60446;50.752;4.352;2023-05-10T14:27:13;17.60;70.00
72440;DHT22;60446;50.752;4.352;2023-05-10T14:29:42;17.70;68.20
72440;DHT22;60446;50.752;4.352;2023-05-10T14:32:12;17.70;69.90
72440;DHT22;60446;50.752;4.352;2023-05-10T14:34:39;17.60;65.90
72440;DHT22;60446;50.752;4.352;2023-05-10T14:37:06;17.40;67.40
72440;DHT22;60446;50.752;4.352;2023-05-10T14:39:33;17.00;67.70
72440;DHT22;60446;50.752;4.352;2023-05-10T14:42:05;16.80;70.00
72440;DHT22;60446;50.752;4.352;2023-05-10T14:44:32;16.70;68.60
72440;DHT22;60446;50.752;4.352;2023-05-10T14:47:00;16.80;69.30
72440;DHT22;60446;50.752;4.352;2023-05-10T14:49:27;16.70;70.60
72440;DHT22;60446;50.752;4.352;2023-05-10T14:51:55;16.60;71.70
72440;DHT22;60446;50.752;4.352;2023-05-10T14:54:23;16.30;70.30
72440;DHT22;60446;50.752;4.352;2023-05-10T14:56:50;16.00;71.30
72440;DHT22;60446;50.752;4.352;2023-05-10T14:59:17;15.90;70.70
72440;DHT22;60446;50.752;4.352;2023-05-10T15:01:45;15.70;71.80
72440;DHT22;60446;50.752;4.352;2023-05-10T15:04:12;15.70;71.90
72440;DHT22;60446;50.752;4.352;2023-05-10T15:06:40;15.70;71.60
72440;DHT22;60446;50.752;4.352;2023-05-10T15:09:07;15.50;71.00
72440;DHT22;60446;50.752;4.352;2023-05-10T15:11:35;15.40;72.70
72440;DHT22;60446;50.752;4.352;2023-05-10T15:14:02;15.20;74.80
72440;DHT22;60446;50.752;4.352;2023-05-10T15:16:30;15.20;73.90
72440;DHT22;60446;50.752;4.352;2023-05-10T15:19:01;15.10;70.80
72440;DHT22;60446;50.752;4.352;2023-05-10T15:21:29;14.90;71.90
72440;DHT22;60446;50.752;4.352;2023-05-10T15:24:01;14.80;73.40
72440;DHT22;60446;50.752;4.352;2023-05-10T15:26:29;14.70;73.20
72440;DHT22;60446;50.752;4.352;2023-05-10T15:28:56;14.70;72.90
72440;DHT22;60446;50.752;4.352;2023-05-10T15:31:23;14.80;71.60
72440;DHT22;60446;50.752;4.352;2023-05-10T15:33:50;14.70;72.10
72440;DHT22;60446;50.752;4.352;2023-05-10T15:36:17;14.90;73.60
72440;DHT22;60446;50.752;4.352;2023-05-10T15:38:45;14.90;71.30
72440;DHT22;60446;50.752;4.352;2023-05-10T15:41:12;14.90;73.30
72440;DHT22;60446;50.752;4.352;2023-05-10T15:43:39;15.00;72.40
72440;DHT22;60446;50.752;4.352;2023-05-10T15:46:06;15.10;69.90
72440;DHT22;60446;50.752;4.352;2023-05-10T15:48:33;15.10;68.30
72440;DHT22;60446;50.752;4.352;2023-05-10T15:51:00;15.00;67.70
72440;DHT22;60446;50.752;4.352;2023-05-10T15:53:27;15.10;69.70
72440;DHT22;60446;50.752;4.352;2023-05-10T15:55:54;15.00;68.40
72440;DHT22;60446;50.752;4.352;2023-05-10T15:58:21;15.10;68.80
72440;DHT22;60446;50.752;4.352;2023-05-10T16:00:48;15.10;68.40
72440;DHT22;60446;50.752;4.352;2023-05-10T16:03:16;15.10;69.80
72440;DHT22;60446;50.752;4.352;2023-05-10T16:05:43;15.20;68.40
72440;DHT22;60446;50.752;4.352;2023-05-10T16:08:10;15.20;68.50
72440;DHT22;60446;50.752;4.352;2023-05-10T16:10:37;15.20;71.00
72440;DHT22;60446;50.752;4.352;2023-05-10T16:13:04;15.30;70.80
72440;DHT22;60446;50.752;4.352;2023-05-10T16:15:31;15.40;71.00
72440;DHT22;60446;50.752;4.352;2023-05-10T16:17:58;15.50;69.00
72440;DHT22;60446;50.752;4.352;2023-05-10T16:20:26;15.60;71.30
72440;DHT22;60446;50.752;4.352;2023-05-10T16:22:53;15.60;70.60